sensor_id;sensor_type;location;lat;lon;timestamp;temperature;humidity
3186;DHT22;1604;53.700;10.252;2023-02-28T00:03:00;2.20;99.90
3186;DHT22;1604;53.700;10.252;2023-02-28T00:06:03;2.20;99.90
3186;DHT22;1604;53.700;10.252;2023-02-28T00:09:05;2.20;99.90
3186;DHT22;1604;53.700;10.252;2023-02-28T00:12:07;2.10;99.90
3186;DHT22;1604;53.700;10.252;2023-02-28T00:15:10;2.10;99.90
3186;DHT22;1604;53.700;10.252;2023-02-28T00:18:14;2.10;99.90
3186;DHT22;1604;53.700;10.252;2023-02-28T00:21:17;2.10;99.90
3186;DHT22;1604;53.700;10.252;2023-02-28T00:24:19;2.10;99.90
3186;DHT22;1604;53.700;10.252;2023-02-28T00:27:21;2.10;99.90
3186;DHT22;1604;53.700;10.252;2023-02-28T00:30:24;2.10;99.90
3186;DHT22;1604;53.700;10.252;2023-02-28T00:33:27;2.10;99.90
3186;DHT22;1604;53.700;10.252;2023-02-28T00:36:29;2.00;99.90
3186;DHT22;1604;53.700;10.252;2023-02-28T00:39:33;2.00;99.90
3186;DHT22;1604;53.700;10.252;2023-02-28T00:42:36;2.00;99.90
3186;DHT22;1604;53.700;10.252;2023-02-28T00:45:38;2.00;99.90
3186;DHT22;1604;53.700;10.252;2023-02-28T00:48:41;1.90;99.90
3186;DHT22;1604;53.700;10.252;2023-02-28T00:51:43;1.90;99.90
3186;DHT22;1604;53.700;10.252;2023-02-28T00:54:45;1.90;99.90
3186;DHT22;1604;53.700;10.252;2023-02-28T00:57:47;1.90;99.90
3186;DHT22;1604;53.700;10.252;2023-02-28T01:00:50;1.80;99.90
3186;DHT22;1604;53.700;10.252;2023-02-28T01:03:54;1.80;99.90
3186;DHT22;1604;53.700;10.252;2023-02-28T01:06:56;1.80;99.90
3186;DHT22;1604;53.700;10.252;2023-02-28T01:09:58;1.80;99.90
3186;DHT22;1604;53.700;10.252;2023-02-28T01:13:00;1.80;99.90
3186;DHT22;1604;53.700;10.252;2023-02-28T01:16:02;1.70;99.90
3186;DHT22;1604;53.700;10.252;2023-02-28T01:19:05;1.70;99.90
3186;DHT22;1604;53.700;10.252;2023-02-28T01:22:07;1.70;99.90
3186;DHT22;1604;53.700;10.252;2023-02-28T01:25:09;1.70;99.90
3186;DHT22;1604;53.700;10.252;2023-02-28T01:28:11;1.70;99.90
3186;DHT22;1604;53.700;10.252;2023-02-28T01:31:13;1.60;99.90
3186;DHT22;1604;53.700;10.252;2023-02-28T01:34:17;1.60;99.90
3186;DHT22;1604;53.700;10.252;2023-02-28T01:37:19;1.60;99.90
3186;DHT22;1604;53.700;10.252;2023-02-28T01:40:22;1.50;99.90
3186;DHT22;1604;53.700;10.252;2023-02-28T01:43:26;1.50;99.90
3186;DHT22;1604;53.700;10.252;2023-02-28T01:46:28;1.50;99.90
3186;DHT22;1604;53.700;10.252;2023-02-28T01:49:32;1.50;99.90
3186;DHT22;1604;53.700;10.252;2023-02-28T01:52:34;1.50;99.90
3186;DHT22;1604;53.700;10.252;2023-02-28T01:55:36;1.40;99.90
3186;DHT22;1604;53.700;10.252;2023-02-28T01:58:39;1.40;99.90
3186;DHT22;1604;53.700;10.252;2023-02-28T02:01:41;1.40;99.90
3186;DHT22;1604;53.700;10.252;2023-02-28T02:04:50;1.40;99.90
3186;DHT22;1604;53.700;10.252;2023-02-28T02:07:55;1.40;99.90
3186;DHT22;1604;53.700;10.252;2023-02-28T02:11:00;1.40;99.90
3186;DHT22;1604;53.700;10.252;2023-02-28T02:14:31;1.40;99.90
3186;DHT22;1604;53.700;10.252;2023-02-28T02:17:39;1.40;99.90
3186;DHT22;1604;53.700;10.252;2023-02-28T02:21:09;1.40;99.90
3186;DHT22;1604;53.700;10.252;2023-02-28T02:24:48;1.40;99.90
3186;DHT22;1604;53.700;10.252;2023-02-28T02:32:09;1.40;99.90
3186;DHT22;1604;53.700;10.252;2023-02-28T02:35:22;1.40;99.90
3186;DHT22;1604;53.700;10.252;2023-02-28T02:38:32;1.30;99.90
3186;DHT22;1604;53.700;10.252;2023-02-28T02:41:38;1.30;99.90
3186;DHT22;1604;53.700;10.252;2023-02-28T02:44:46;1.30;99.90
3186;DHT22;1604;53.700;10.252;2023-02-28T02:47:50;1.30;99.90
3186;DHT22;1604;53.700;10.252;2023-02-28T02:50:56;1.20;99.90
3186;DHT22;1604;53.700;10.252;2023-02-28T02:54:02;1.20;99.90
3186;DHT22;1604;53.700;10.252;2023-02-28T02:57:09;1.20;99.90
3186;DHT22;1604;53.700;10.252;2023-02-28T03:00:14;1.10;99.90
3186;DHT22;1604;53.700;10.252;2023-02-28T03:03:19;1.00;99.90
3186;DHT22;1604;53.700;10.252;2023-02-28T03:06:30;1.00;99.90
3186;DHT22;1604;53.700;10.252;2023-02-28T03:09:34;0.90;99.90
3186;DHT22;1604;53.700;10.252;2023-02-28T03:12:41;0.80;99.90
3186;DHT22;1604;53.700;10.252;2023-02-28T03:15:57;0.70;99.90
3186;DHT22;1604;53.700;10.252;2023-02-28T03:22:39;0.50;99.90
3186;DHT22;1604;53.700;10.252;2023-02-28T03:25:56;0.40;99.90
3186;DHT22;1604;53.700;10.252;2023-02-28T03:29:03;0.40;99.90
3186;DHT22;1604;53.700;10.252;2023-02-28T03:32:12;0.30;99.90
3186;DHT22;1604;53.700;10.252;2023-02-28T03:35:21;0.20;99.90
3186;DHT22;1604;53.700;10.252;2023-02-28T03:38:29;0.20;99.90
3186;DHT22;1604;53.700;10.252;2023-02-28T03:41:37;0.10;99.90
3186;DHT22;1604;53.700;10.252;2023-02-28T03:44:43;0.00;99.90
3186;DHT22;1604;53.700;10.252;2023-02-28T03:47:49;0.00;99.90
3186;DHT22;1604;53.700;10.252;2023-02-28T03:50:55;-0.10;99.90
3186;DHT22;1604;53.700;10.252;2023-02-28T03:54:05;-0.20;99.90
3186;DHT22;1604;53.700;10.252;2023-02-28T03:57:13;-0.30;99.90
3186;DHT22;1604;53.700;10.252;2023-02-28T04:00:20;-0.30;99.90
3186;DHT22;1604;53.700;10.252;2023-02-28T04:03:22;-0.40;99.90
3186;DHT22;1604;53.700;10.252;2023-02-28T04:06:25;-0.50;99.90
3186;DHT22;1604;53.700;10.252;2023-02-28T04:09:29;-0.50;99.90
3186;DHT22;1604;53.700;10.252;2023-02-28T04:12:31;-0.60;99.90
3186;DHT22;1604;53.700;10.252;2023-02-28T04:15:32;-0.60;99.90
3186;DHT22;1604;53.700;10.252;2023-02-28T04:18:34;-0.70;99.90
3186;DHT22;1604;53.700;10.252;2023-02-28T04:21:37;-0.70;99.90
3186;DHT22;1604;53.700;10.252;2023-02-28T04:24:42;-0.80;99.90
3186;DHT22;1604;53.700;10.252;2023-02-28T04:27:44;-0.80;99.90
3186;DHT22;1604;53.700;10.252;2023-02-28T04:30:46;-0.90;99.90
3186;DHT22;1604;53.700;10.252;2023-02-28T04:33:48;-0.90;99.90
3186;DHT22;1604;53.700;10.252;2023-02-28T04:36:50;-1.00;99.90
3186;DHT22;1604;53.700;10.252;2023-02-28T04:39:55;-1.00;99.90
3186;DHT22;1604;53.700;10.252;2023-02-28T04:42:57;-1.10;99.90
3186;DHT22;1604;53.700;10.252;2023-02-28T04:46:02;-1.10;99.90
3186;DHT22;1604;53.700;10.252;2023-02-28T04:49:04;-1.20;99.90
3186;DHT22;1604;53.700;10.252;2023-02-28T04:52:06;-1.30;99.90
3186;DHT22;1604;53.700;10.252;2023-02-28T04:55:10;-1.30;99.90
3186;DHT22;1604;53.700;10.252;2023-02-28T04:58:12;-1.40;99.90
3186;DHT22;1604;53.700;10.252;2023-02-28T05:01:20;-1.40;99.90
3186;DHT22;1604;53.700;10.252;2023-02-28T05:04:22;-1.50;99.90
3186;DHT22;1604;53.700;10.252;2023-02-28T05:07:24;-1.50;99.90
3186;DHT22;1604;53.700;10.252;2023-02-28T05:10:27;-1.60;99.90
3186;DHT22;1604;53.700;10.252;2023-02-28T05:13:30;-1.60;99.90
3186;DHT22;1604;53.700;10.252;2023-02-28T05:16:32;-1.70;99.90
3186;DHT22;1604;53.700;10.252;2023-02-28T05:19:34;-1.70;99.90
3186;DHT22;1604;53.700;10.252;2023-02-28T05:22:36;-1.80;99.90
3186;DHT22;1604;53.700;10.252;2023-02-28T05:25:45;-1.80;99.90
3186;DHT22;1604;53.700;10.252;2023-02-28T05:28:46;-1.80;99.90
3186;DHT22;1604;53.700;10.252;2023-02-28T05:31:48;-1.90;99.90
3186;DHT22;1604;53.700;10.252;2023-02-28T05:34:50;-1.90;99.90
3186;DHT22;1604;53.700;10.252;2023-02-28T05:37:52;-2.00;99.90
3186;DHT22;1604;53.700;10.252;2023-02-28T05:40:56;-2.00;99.90
3186;DHT22;1604;53.700;10.252;2023-02-28T05:43:58;-2.10;99.90
3186;DHT22;1604;53.700;10.252;2023-02-28T05:47:01;-2.10;99.90
3186;DHT22;1604;53.700;10.252;2023-02-28T05:50:04;-2.20;99.90
3186;DHT22;1604;53.700;10.252;2023-02-28T05:53:06;-2.20;99.90
3186;DHT22;1604;53.700;10.252;2023-02-28T05:56:10;-2.30;99.90
3186;DHT22;1604;53.700;10.252;2023-02-28T05:59:12;-2.30;99.90
3186;DHT22;1604;53.700;10.252;2023-02-28T06:02:16;-2.40;99.90
3186;DHT22;1604;53.700;10.252;2023-02-28T06:05:18;-2.40;99.90
3186;DHT22;1604;53.700;10.252;2023-02-28T06:08:21;-2.50;99.90
3186;DHT22;1604;53.700;10.252;2023-02-28T06:11:24;-2.50;99.90
3186;DHT22;1604;53.700;10.252;2023-02-28T06:14:27;-2.60;99.90
3186;DHT22;1604;53.700;10.252;2023-02-28T06:17:29;-2.60;99.90
3186;DHT22;1604;53.700;10.252;2023-02-28T06:20:31;-2.60;99.90
3186;DHT22;1604;53.700;10.252;2023-02-28T06:23:33;-2.60;99.90
3186;DHT22;1604;53.700;10.252;2023-02-28T06:26:37;-2.60;99.90
3186;DHT22;1604;53.700;10.252;2023-02-28T06:29:39;-2.60;99.90
3186;DHT22;1604;53.700;10.252;2023-02-28T06:32:41;-2.60;99.90
3186;DHT22;1604;53.700;10.252;2023-02-28T06:35:44;-2.70;99.90
3186;DHT22;1604;53.700;10.252;2023-02-28T06:38:46;-2.70;99.90
3186;DHT22;1604;53.700;10.252;2023-02-28T06:41:53;-2.70;99.90
3186;DHT22;1604;53.700;10.252;2023-02-28T06:44:55;-2.70;99.90
3186;DHT22;1604;53.700;10.252;2023-02-28T06:47:59;-2.60;99.90
3186;DHT22;1604;53.700;10.252;2023-02-28T06:51:02;-2.60;99.90
3186;DHT22;1604;53.700;10.252;2023-02-28T06:54:05;-2.50;99.90
3186;DHT22;1604;53.700;10.252;2023-02-28T06:57:10;-2.40;99.90
3186;DHT22;1604;53.700;10.252;2023-02-28T07:00:13;-2.20;99.90
3186;DHT22;1604;53.700;10.252;2023-02-28T07:03:16;-2.00;99.90
3186;DHT22;1604;53.700;10.252;2023-02-28T07:06:19;-1.90;99.90
3186;DHT22;1604;53.700;10.252;2023-02-28T07:09:23;-1.70;99.90
3186;DHT22;1604;53.700;10.252;2023-02-28T07:12:26;-1.50;99.90
3186;DHT22;1604;53.700;10.252;2023-02-28T07:15:28;-1.30;99.90
3186;DHT22;1604;53.700;10.252;2023-02-28T07:18:30;-1.00;99.90
3186;DHT22;1604;53.700;10.252;2023-02-28T07:21:32;-0.80;99.90
3186;DHT22;1604;53.700;10.252;2023-02-28T07:24:34;-0.50;99.90
3186;DHT22;1604;53.700;10.252;2023-02-28T07:27:37;-0.20;99.90
3186;DHT22;1604;53.700;10.252;2023-02-28T07:30:39;0.00;99.90
3186;DHT22;1604;53.700;10.252;2023-02-28T07:33:41;0.20;99.90
3186;DHT22;1604;53.700;10.252;2023-02-28T07:36:43;0.40;99.90
3186;DHT22;1604;53.700;10.252;2023-02-28T07:39:45;0.70;99.90
3186;DHT22;1604;53.700;10.252;2023-02-28T07:42:48;0.90;99.90
3186;DHT22;1604;53.700;10.252;2023-02-28T07:45:50;1.20;99.90
3186;DHT22;1604;53.700;10.252;2023-02-28T07:48:52;1.40;99.90
3186;DHT22;1604;53.700;10.252;2023-02-28T07:51:55;1.60;99.90
3186;DHT22;1604;53.700;10.252;2023-02-28T07:54:57;1.90;99.90
3186;DHT22;1604;53.700;10.252;2023-02-28T07:58:00;2.40;99.90
3186;DHT22;1604;53.700;10.252;2023-02-28T08:01:06;2.80;99.90
3186;DHT22;1604;53.700;10.252;2023-02-28T08:04:08;3.00;99.90
3186;DHT22;1604;53.700;10.252;2023-02-28T08:07:12;3.30;99.90
3186;DHT22;1604;53.700;10.252;2023-02-28T08:10:15;3.60;99.90
3186;DHT22;1604;53.700;10.252;2023-02-28T08:13:18;3.80;99.90
3186;DHT22;1604;53.700;10.252;2023-02-28T08:16:20;3.90;99.90
3186;DHT22;1604;53.700;10.252;2023-02-28T08:19:23;4.10;99.90
3186;DHT22;1604;53.700;10.252;2023-02-28T08:22:25;4.20;99.90
3186;DHT22;1604;53.700;10.252;2023-02-28T08:25:27;4.30;99.30
3186;DHT22;1604;53.700;10.252;2023-02-28T08:28:31;4.30;98.40
3186;DHT22;1604;53.700;10.252;2023-02-28T08:31:33;4.30;98.50
3186;DHT22;1604;53.700;10.252;2023-02-28T08:34:36;4.40;98.30
3186;DHT22;1604;53.700;10.252;2023-02-28T08:37:40;4.40;97.40
3186;DHT22;1604;53.700;10.252;2023-02-28T08:40:42;4.40;97.70
3186;DHT22;1604;53.700;10.252;2023-02-28T08:43:45;4.40;97.60
3186;DHT22;1604;53.700;10.252;2023-02-28T08:46:47;4.40;97.90
3186;DHT22;1604;53.700;10.252;2023-02-28T08:49:49;4.30;97.80
3186;DHT22;1604;53.700;10.252;2023-02-28T08:52:51;4.30;97.90
3186;DHT22;1604;53.700;10.252;2023-02-28T08:55:57;4.30;97.70
3186;DHT22;1604;53.700;10.252;2023-02-28T08:59:00;4.30;98.00
3186;DHT22;1604;53.700;10.252;2023-02-28T09:02:02;4.30;97.50
3186;DHT22;1604;53.700;10.252;2023-02-28T09:05:04;4.30;97.00
3186;DHT22;1604;53.700;10.252;2023-02-28T09:08:06;4.30;96.50
3186;DHT22;1604;53.700;10.252;2023-02-28T09:11:09;4.30;96.70
3186;DHT22;1604;53.700;10.252;2023-02-28T09:14:13;4.30;96.20
3186;DHT22;1604;53.700;10.252;2023-02-28T09:17:15;4.40;95.80
3186;DHT22;1604;53.700;10.252;2023-02-28T09:20:17;4.40;95.30
3186;DHT22;1604;53.700;10.252;2023-02-28T09:23:20;4.30;95.30
3186;DHT22;1604;53.700;10.252;2023-02-28T09:26:23;4.30;95.70
3186;DHT22;1604;53.700;10.252;2023-02-28T09:29:26;4.20;95.80
3186;DHT22;1604;53.700;10.252;2023-02-28T09:32:28;4.20;95.00
3186;DHT22;1604;53.700;10.252;2023-02-28T09:35:30;4.20;95.20
3186;DHT22;1604;53.700;10.252;2023-02-28T09:38:32;4.10;95.10
3186;DHT22;1604;53.700;10.252;2023-02-28T09:41:37;4.10;94.40
3186;DHT22;1604;53.700;10.252;2023-02-28T09:44:50;4.10;94.10
3186;DHT22;1604;53.700;10.252;2023-02-28T09:47:54;4.20;93.60
3186;DHT22;1604;53.700;10.252;2023-02-28T09:51:02;4.20;93.60
3186;DHT22;1604;53.700;10.252;2023-02-28T09:54:04;4.20;93.20
3186;DHT22;1604;53.700;10.252;2023-02-28T09:57:08;4.30;93.40
3186;DHT22;1604;53.700;10.252;2023-02-28T10:00:17;4.40;94.00
3186;DHT22;1604;53.700;10.252;2023-02-28T10:03:29;4.40;93.80
3186;DHT22;1604;53.700;10.252;2023-02-28T10:06:36;4.50;93.20
3186;DHT22;1604;53.700;10.252;2023-02-28T10:09:40;4.50;92.60
3186;DHT22;1604;53.700;10.252;2023-02-28T10:12:44;4.50;92.60
3186;DHT22;1604;53.700;10.252;2023-02-28T10:15:52;4.50;92.60
3186;DHT22;1604;53.700;10.252;2023-02-28T10:18:59;4.50;92.30
3186;DHT22;1604;53.700;10.252;2023-02-28T10:22:08;4.50;92.20
3186;DHT22;1604;53.700;10.252;2023-02-28T10:25:18;4.60;91.60
3186;DHT22;1604;53.700;10.252;2023-02-28T10:28:21;4.70;91.60
3186;DHT22;1604;53.700;10.252;2023-02-28T10:31:24;4.70;90.80
3186;DHT22;1604;53.700;10.252;2023-02-28T10:34:26;4.70;91.30
3186;DHT22;1604;53.700;10.252;2023-02-28T10:37:28;4.70;90.30
3186;DHT22;1604;53.700;10.252;2023-02-28T10:40:33;4.80;90.10
3186;DHT22;1604;53.700;10.252;2023-02-28T10:43:36;4.90;89.70
3186;DHT22;1604;53.700;10.252;2023-02-28T10:46:40;5.10;89.00
3186;DHT22;1604;53.700;10.252;2023-02-28T10:49:47;5.10;88.40
3186;DHT22;1604;53.700;10.252;2023-02-28T10:52:49;5.30;87.70
3186;DHT22;1604;53.700;10.252;2023-02-28T10:55:57;5.40;87.30
3186;DHT22;1604;53.700;10.252;2023-02-28T10:59:01;5.50;87.40
3186;DHT22;1604;53.700;10.252;2023-02-28T11:02:30;5.50;87.30
3186;DHT22;1604;53.700;10.252;2023-02-28T11:05:34;5.50;86.60
3186;DHT22;1604;53.700;10.252;2023-02-28T11:08:44;5.50;84.60
3186;DHT22;1604;53.700;10.252;2023-02-28T11:11:47;5.50;82.50
3186;DHT22;1604;53.700;10.252;2023-02-28T11:14:52;5.60;81.60
3186;DHT22;1604;53.700;10.252;2023-02-28T11:17:58;5.70;82.90
3186;DHT22;1604;53.700;10.252;2023-02-28T11:21:02;5.90;83.30
3186;DHT22;1604;53.700;10.252;2023-02-28T11:24:14;6.10;82.80
3186;DHT22;1604;53.700;10.252;2023-02-28T11:27:46;6.30;81.40
3186;DHT22;1604;53.700;10.252;2023-02-28T11:31:01;6.70;80.60
3186;DHT22;1604;53.700;10.252;2023-02-28T11:34:24;6.90;78.60
3186;DHT22;1604;53.700;10.252;2023-02-28T11:37:28;7.00;75.50
3186;DHT22;1604;53.700;10.252;2023-02-28T11:40:37;7.40;76.70
3186;DHT22;1604;53.700;10.252;2023-02-28T11:43:51;7.70;73.90
3186;DHT22;1604;53.700;10.252;2023-02-28T11:46:58;8.00;72.30
3186;DHT22;1604;53.700;10.252;2023-02-28T11:50:14;8.20;69.70
3186;DHT22;1604;53.700;10.252;2023-02-28T11:53:23;8.40;68.20
3186;DHT22;1604;53.700;10.252;2023-02-28T11:56:36;8.50;67.70
3186;DHT22;1604;53.700;10.252;2023-02-28T11:59:48;8.60;67.80
3186;DHT22;1604;53.700;10.252;2023-02-28T12:03:01;8.90;65.80
3186;DHT22;1604;53.700;10.252;2023-02-28T12:06:16;8.90;65.10
3186;DHT22;1604;53.700;10.252;2023-02-28T12:09:36;9.00;64.70
3186;DHT22;1604;53.700;10.252;2023-02-28T12:12:46;9.10;64.70
3186;DHT22;1604;53.700;10.252;2023-02-28T12:16:15;9.20;63.20
3186;DHT22;1604;53.700;10.252;2023-02-28T12:19:21;9.30;63.20
3186;DHT22;1604;53.700;10.252;2023-02-28T12:22:30;9.50;62.90
3186;DHT22;1604;53.700;10.252;2023-02-28T12:25:46;9.70;62.50
3186;DHT22;1604;53.700;10.252;2023-02-28T12:28:53;9.80;62.10
3186;DHT22;1604;53.700;10.252;2023-02-28T12:31:59;9.90;61.00
3186;DHT22;1604;53.700;10.252;2023-02-28T12:35:11;10.00;60.30
3186;DHT22;1604;53.700;10.252;2023-02-28T12:38:17;10.10;60.60
3186;DHT22;1604;53.700;10.252;2023-02-28T12:41:24;10.10;59.40
3186;DHT22;1604;53.700;10.252;2023-02-28T12:44:32;10.00;58.50
3186;DHT22;1604;53.700;10.252;2023-02-28T12:47:36;10.10;58.10
3186;DHT22;1604;53.700;10.252;2023-02-28T12:50:39;10.30;57.90
3186;DHT22;1604;53.700;10.252;2023-02-28T12:53:52;10.20;56.30
3186;DHT22;1604;53.700;10.252;2023-02-28T12:57:02;10.30;57.00
3186;DHT22;1604;53.700;10.252;2023-02-28T13:00:13;10.10;56.10
3186;DHT22;1604;53.700;10.252;2023-02-28T13:03:32;10.10;56.40
3186;DHT22;1604;53.700;10.252;2023-02-28T13:06:57;10.20;58.00
3186;DHT22;1604;53.700;10.252;2023-02-28T13:10:04;10.30;57.40
3186;DHT22;1604;53.700;10.252;2023-02-28T13:13:14;10.40;57.00
3186;DHT22;1604;53.700;10.252;2023-02-28T13:16:17;10.20;56.10
3186;DHT22;1604;53.700;10.252;2023-02-28T13:19:20;10.20;56.70
3186;DHT22;1604;53.700;10.252;2023-02-28T13:22:38;10.20;56.60
3186;DHT22;1604;53.700;10.252;2023-02-28T13:25:52;10.40;55.50
3186;DHT22;1604;53.700;10.252;2023-02-28T13:29:00;10.40;58.30
3186;DHT22;1604;53.700;10.252;2023-02-28T13:35:44;10.20;55.80
3186;DHT22;1604;53.700;10.252;2023-02-28T13:38:48;10.20;55.70
3186;DHT22;1604;53.700;10.252;2023-02-28T13:41:53;10.40;56.20
3186;DHT22;1604;53.700;10.252;2023-02-28T13:45:20;10.30;57.60
3186;DHT22;1604;53.700;10.252;2023-02-28T13:48:26;10.30;56.60
3186;DHT22;1604;53.700;10.252;2023-02-28T13:51:43;10.30;55.40
3186;DHT22;1604;53.700;10.252;2023-02-28T13:55:13;10.20;55.30
3186;DHT22;1604;53.700;10.252;2023-02-28T13:58:36;10.00;56.50
3186;DHT22;1604;53.700;10.252;2023-02-28T14:01:53;10.10;57.40
3186;DHT22;1604;53.700;10.252;2023-02-28T14:05:04;10.20;57.80
3186;DHT22;1604;53.700;10.252;2023-02-28T14:08:12;10.30;57.60
3186;DHT22;1604;53.700;10.252;2023-02-28T14:11:27;10.40;53.70
3186;DHT22;1604;53.700;10.252;2023-02-28T14:14:55;10.40;53.90
3186;DHT22;1604;53.700;10.252;2023-02-28T14:18:00;10.20;54.20
3186;DHT22;1604;53.700;10.252;2023-02-28T14:21:25;10.10;56.20
3186;DHT22;1604;53.700;10.252;2023-02-28T14:24:50;10.00;55.60
3186;DHT22;1604;53.700;10.252;2023-02-28T14:28:00;10.00;54.90
3186;DHT22;1604;53.700;10.252;2023-02-28T14:31:09;9.80;57.60
3186;DHT22;1604;53.700;10.252;2023-02-28T14:34:25;9.70;56.60
3186;DHT22;1604;53.700;10.252;2023-02-28T14:37:31;9.50;56.20
3186;DHT22;1604;53.700;10.252;2023-02-28T14:40:34;9.40;57.90
3186;DHT22;1604;53.700;10.252;2023-02-28T14:43:36;9.40;56.90
3186;DHT22;1604;53.700;10.252;2023-02-28T14:46:41;9.30;56.50
3186;DHT22;1604;53.700;10.252;2023-02-28T14:49:45;9.20;57.40
3186;DHT22;1604;53.700;10.252;2023-02-28T14:52:49;9.10;56.70
3186;DHT22;1604;53.700;10.252;2023-02-28T14:55:53;9.00;55.60
3186;DHT22;1604;53.700;10.252;2023-02-28T14:58:56;8.90;56.60
3186;DHT22;1604;53.700;10.252;2023-02-28T15:02:20;8.80;56.70
3186;DHT22;1604;53.700;10.252;2023-02-28T15:05:27;8.80;56.80
3186;DHT22;1604;53.700;10.252;2023-02-28T15:08:30;8.70;57.40
3186;DHT22;1604;53.700;10.252;2023-02-28T15:11:37;8.70;57.50
3186;DHT22;1604;53.700;10.252;2023-02-28T15:14:42;8.60;58.80
3186;DHT22;1604;53.700;10.252;2023-02-28T15:17:49;8.50;57.70
3186;DHT22;1604;53.700;10.252;2023-02-28T15:20:53;8.30;58.70
3186;DHT22;1604;53.700;10.252;2023-02-28T15:23:56;8.20;59.60
3186;DHT22;1604;53.700;10.252;2023-02-28T15:27:03;8.20;60.30
3186;DHT22;1604;53.700;10.252;2023-02-28T15:30:08;8.10;60.50
3186;DHT22;1604;53.700;10.252;2023-02-28T15:33:20;8.00;60.90
3186;DHT22;1604;53.700;10.252;2023-02-28T15:36:25;8.00;61.90
3186;DHT22;1604;53.700;10.252;2023-02-28T15:39:28;7.90;61.70
3186;DHT22;1604;53.700;10.252;2023-02-28T15:42:30;7.80;61.70
3186;DHT22;1604;53.700;10.252;2023-02-28T15:45:36;7.70;62.00
3186;DHT22;1604;53.700;10.252;2023-02-28T15:48:45;7.60;62.00
3186;DHT22;1604;53.700;10.252;2023-02-28T15:51:52;7.60;62.00
3186;DHT22;1604;53.700;10.252;2023-02-28T15:54:55;7.50;62.40
3186;DHT22;1604;53.700;10.252;2023-02-28T15:58:01;7.40;63.10
3186;DHT22;1604;53.700;10.252;2023-02-28T16:01:17;7.30;63.40
3186;DHT22;1604;53.700;10.252;2023-02-28T16:04:21;7.20;64.20
3186;DHT22;1604;53.700;10.252;2023-02-28T16:07:24;7.00;64.70
3186;DHT22;1604;53.700;10.252;2023-02-28T16:10:28;7.00;65.10
3186;DHT22;1604;53.700;10.252;2023-02-28T16:13:30;6.90;65.80
3186;DHT22;1604;53.700;10.252;2023-02-28T16:16:32;6.90;65.20
3186;DHT22;1604;53.700;10.252;2023-02-28T16:19:36;6.80;65.50
3186;DHT22;1604;53.700;10.252;2023-02-28T16:22:38;6.80;66.20
3186;DHT22;1604;53.700;10.252;2023-02-28T16:25:43;6.70;67.30
3186;DHT22;1604;53.700;10.252;2023-02-28T16:28:46;6.60;67.70
3186;DHT22;1604;53.700;10.252;2023-02-28T16:31:48;6.50;67.80
3186;DHT22;1604;53.700;10.252;2023-02-28T16:34:51;6.40;67.80
3186;DHT22;1604;53.700;10.252;2023-02-28T16:37:54;6.30;68.80
3186;DHT22;1604;53.700;10.252;2023-02-28T16:40:58;6.20;69.50
3186;DHT22;1604;53.700;10.252;2023-02-28T16:44:00;6.10;69.50
3186;DHT22;1604;53.700;10.252;2023-02-28T16:47:04;5.90;70.50
3186;DHT22;1604;53.700;10.252;2023-02-28T16:50:13;5.80;71.20
3186;DHT22;1604;53.700;10.252;2023-02-28T16:53:16;5.70;71.70
3186;DHT22;1604;53.700;10.252;2023-02-28T16:56:20;5.60;71.90
3186;DHT22;1604;53.700;10.252;2023-02-28T16:59:23;5.50;72.60
3186;DHT22;1604;53.700;10.252;2023-02-28T17:02:25;5.30;72.60
3186;DHT22;1604;53.700;10.252;2023-02-28T17:05:34;5.30;72.90
3186;DHT22;1604;53.700;10.252;2023-02-28T17:08:38;5.20;74.10
3186;DHT22;1604;53.700;10.252;2023-02-28T17:11:40;5.00;75.30
3186;DHT22;1604;53.700;10.252;2023-02-28T17:14:42;4.90;76.00
3186;DHT22;1604;53.700;10.252;2023-02-28T17:17:44;4.80;78.20
3186;DHT22;1604;53.700;10.252;2023-02-28T17:20:48;4.70;80.20
3186;DHT22;1604;53.700;10.252;2023-02-28T17:23:50;4.50;82.10
3186;DHT22;1604;53.700;10.252;2023-02-28T17:26:52;4.40;83.90
3186;DHT22;1604;53.700;10.252;2023-02-28T17:29:54;4.20;85.30
3186;DHT22;1604;53.700;10.252;2023-02-28T17:32:56;4.10;86.90
3186;DHT22;1604;53.700;10.252;2023-02-28T17:36:00;3.90;87.80
3186;DHT22;1604;53.700;10.252;2023-02-28T17:39:03;3.80;88.20
3186;DHT22;1604;53.700;10.252;2023-02-28T17:42:05;3.70;88.70
3186;DHT22;1604;53.700;10.252;2023-02-28T17:45:09;3.60;89.20
3186;DHT22;1604;53.700;10.252;2023-02-28T17:48:11;3.50;89.90
3186;DHT22;1604;53.700;10.252;2023-02-28T17:51:16;3.40;90.60
3186;DHT22;1604;53.700;10.252;2023-02-28T17:54:18;3.30;90.90
3186;DHT22;1604;53.700;10.252;2023-02-28T17:57:20;3.20;91.30
3186;DHT22;1604;53.700;10.252;2023-02-28T18:00:23;3.10;91.80
3186;DHT22;1604;53.700;10.252;2023-02-28T18:03:25;3.00;92.20
3186;DHT22;1604;53.700;10.252;2023-02-28T18:06:34;2.80;92.70
3186;DHT22;1604;53.700;10.252;2023-02-28T18:09:36;2.70;93.10
3186;DHT22;1604;53.700;10.252;2023-02-28T18:12:38;2.60;93.70
3186;DHT22;1604;53.700;10.252;2023-02-28T18:15:40;2.60;94.20
3186;DHT22;1604;53.700;10.252;2023-02-28T18:18:43;2.50;94.90
3186;DHT22;1604;53.700;10.252;2023-02-28T18:21:47;2.40;95.70
3186;DHT22;1604;53.700;10.252;2023-02-28T18:24:49;2.30;96.70
3186;DHT22;1604;53.700;10.252;2023-02-28T18:27:51;2.20;97.10
3186;DHT22;1604;53.700;10.252;2023-02-28T18:31:04;2.10;97.10
3186;DHT22;1604;53.700;10.252;2023-02-28T18:34:06;2.00;97.30
3186;DHT22;1604;53.700;10.252;2023-02-28T18:37:10;2.00;97.90
3186;DHT22;1604;53.700;10.252;2023-02-28T18:40:12;1.90;98.30
3186;DHT22;1604;53.700;10.252;2023-02-28T18:43:15;1.80;98.50
3186;DHT22;1604;53.700;10.252;2023-02-28T18:46:18;1.70;98.60
3186;DHT22;1604;53.700;10.252;2023-02-28T18:49:20;1.70;98.70
3186;DHT22;1604;53.700;10.252;2023-02-28T18:52:23;1.60;99.00
3186;DHT22;1604;53.700;10.252;2023-02-28T18:55:25;1.50;99.30
3186;DHT22;1604;53.700;10.252;2023-02-28T18:58:27;1.40;99.50
3186;DHT22;1604;53.700;10.252;2023-02-28T19:01:29;1.40;99.60
3186;DHT22;1604;53.700;10.252;2023-02-28T19:04:33;1.30;99.80
3186;DHT22;1604;53.700;10.252;2023-02-28T19:07:36;1.20;99.90
3186;DHT22;1604;53.700;10.252;2023-02-28T19:10:38;1.20;99.90
3186;DHT22;1604;53.700;10.252;2023-02-28T19:13:40;1.10;99.90
3186;DHT22;1604;53.700;10.252;2023-02-28T19:16:42;1.00;99.90
3186;DHT22;1604;53.700;10.252;2023-02-28T19:19:46;1.00;99.90
3186;DHT22;1604;53.700;10.252;2023-02-28T19:22:49;0.90;99.90
3186;DHT22;1604;53.700;10.252;2023-02-28T19:25:52;0.80;99.90
3186;DHT22;1604;53.700;10.252;2023-02-28T19:28:55;0.80;99.90
3186;DHT22;1604;53.700;10.252;2023-02-28T19:31:57;0.70;99.90
3186;DHT22;1604;53.700;10.252;2023-02-28T19:34:59;0.70;99.90
3186;DHT22;1604;53.700;10.252;2023-02-28T19:38:02;0.60;99.90
3186;DHT22;1604;53.700;10.252;2023-02-28T19:41:06;0.60;99.90
3186;DHT22;1604;53.700;10.252;2023-02-28T19:44:08;0.50;99.90
3186;DHT22;1604;53.700;10.252;2023-02-28T19:47:12;0.40;99.90
3186;DHT22;1604;53.700;10.252;2023-02-28T19:50:14;0.40;99.90
3186;DHT22;1604;53.700;10.252;2023-02-28T19:53:18;0.40;99.90
3186;DHT22;1604;53.700;10.252;2023-02-28T19:56:20;0.30;99.90
3186;DHT22;1604;53.700;10.252;2023-02-28T19:59:22;0.20;99.90
3186;DHT22;1604;53.700;10.252;2023-02-28T20:02:24;0.20;99.90
3186;DHT22;1604;53.700;10.252;2023-02-28T20:05:25;0.10;99.90
3186;DHT22;1604;53.700;10.252;2023-02-28T20:08:29;0.10;99.90
3186;DHT22;1604;53.700;10.252;2023-02-28T20:11:31;0.00;99.90
3186;DHT22;1604;53.700;10.252;2023-02-28T20:14:33;-0.10;99.90
3186;DHT22;1604;53.700;10.252;2023-02-28T20:17:35;-0.10;99.90